Aeroporto :
LOGIN :

Iscrizione | Disclaimer

   EN    FR    IT 

 










Sommario :    VFR   VFR Marginale   IFR   IFR Intensivo   IFR Molto Intensivo
Visibilità : 
Base nubi : 
>= 8 km
>= 3000ft
5 / 8 km
1000 / 3000 ft
1500m / 5 km
500 / 1000 ft
800 / 1500m
200 / 500 ft
< 800m
< 200 ft
Simboli :   Temporali  Nebbia  Neve Forte  Precipitazioni Forti  Vento > 20 kt
SIGMETs :   Varie  Temporali  Ghiacco  Turbolenza  Onda orograficha  Ceneri Vulcaniche







- Altitudine del aeroporto : 1247 ft
- Codice IATA : PRG


LKPR - Praha Ruzyne

ULTIMO METAR :
  • 260730Z 18003KT CAVOK 19/09 Q1009 NOSIG

METARs OBSOLETI :
  • 260700Z 18003KT CAVOK 17/10 Q1009 NOSIG
  • 260630Z 15004KT CAVOK 16/09 Q1009 NOSIG
  • 260600Z 14004KT 120V180 CAVOK 16/09 Q1008 NOSIG
  • 260530Z VRB02KT CAVOK 14/10 Q1009 NOSIG
  • 260500Z 19002KT CAVOK 11/08 Q1009 NOSIG

TAF TAF LKPR
Valido dal 26 a 06 ore il 27 a 12 ore UTC


260500Z 2606/2712 VRB02KT CAVOK
BECMG 2607/2608 16008KT
TEMPO 2609/2615 10010KT
PROB30
TEMPO 2616/2619 29016G34KT 5000 TSRA SCT027CB BKN030
BECMG 2619/2620 27013KT 9999 -RA BKN025
TEMPO 2706/2712 9000 SHRA SCT025TCU
Nessun NOTAM noto per questo aeroporto.



MetMap, La meteo Aeronautica in un colpo d'occhio ! - Copyright ORBIFLY Dicembre 2007 - Disclaimer

ORBIFLY MET'MAP TEAM :

Programmazione e sviluppo : Alexandra Zaïnal
Concezione e sviluppo : Baudouin d'Aumeries
Co-Programmazione e sviluppo : Marc-Olivier Méhu
Supporto tecnico e logistico : Manuel Goepfert
Aiuto per la traduzione : Arnaldo La Scala

Contatto : metmap@orbifly.com




FONTI E CREDITI :

   NOAA